createdAt,value
2023-10-30T00:01:49.072Z,100.00
2023-10-30T00:07:11.140Z,100.00
2023-10-30T00:12:33.220Z,100.00
2023-10-30T00:17:55.226Z,100.00
2023-10-30T00:23:17.116Z,100.00
2023-10-30T00:28:38.980Z,100.00
2023-10-30T00:34:00.787Z,100.00
2023-10-30T00:39:22.836Z,100.00
2023-10-30T00:44:44.779Z,100.00
2023-10-30T00:50:08.866Z,100.00
2023-10-30T00:55:30.781Z,100.00
2023-10-30T01:00:52.627Z,100.00
2023-10-30T01:06:14.519Z,100.00
2023-10-30T01:11:36.486Z,100.00
2023-10-30T01:16:58.374Z,100.00
2023-10-30T01:22:20.198Z,100.00
2023-10-30T01:27:42.099Z,100.00
2023-10-30T01:33:04.220Z,100.00
2023-10-30T01:38:26.157Z,100.00
2023-10-30T01:43:47.961Z,100.00
2023-10-30T01:49:09.902Z,100.00
2023-10-30T01:54:31.809Z,100.00
2023-10-30T01:59:53.917Z,100.00
2023-10-30T02:05:15.878Z,100.00
2023-10-30T02:10:37.979Z,100.00
2023-10-30T02:15:59.991Z,100.00
2023-10-30T02:21:22.175Z,100.00
2023-10-30T02:26:44.324Z,100.00
2023-10-30T02:32:06.462Z,100.00
2023-10-30T02:37:28.289Z,100.00
2023-10-30T02:42:50.371Z,100.00
2023-10-30T02:48:12.257Z,100.00
2023-10-30T02:53:34.120Z,100.00
2023-10-30T02:58:56.056Z,100.00
2023-10-30T03:04:24.732Z,100.00
2023-10-30T03:09:46.857Z,100.00
2023-10-30T03:15:09.349Z,100.00
2023-10-30T03:20:31.288Z,100.00
2023-10-30T03:25:53.106Z,100.00
2023-10-30T03:31:14.931Z,100.00
2023-10-30T03:36:37.052Z,100.00
2023-10-30T03:41:58.906Z,100.00
2023-10-30T03:47:20.736Z,100.00
2023-10-30T03:52:42.761Z,100.00
2023-10-30T03:58:05.960Z,100.00
2023-10-30T04:03:27.934Z,100.00
2023-10-30T04:08:49.982Z,100.00
2023-10-30T04:14:11.816Z,100.00
2023-10-30T04:19:34.832Z,100.00
2023-10-30T04:24:56.602Z,100.00
2023-10-30T04:30:18.367Z,100.00
2023-10-30T04:35:40.229Z,100.00
2023-10-30T04:41:06.122Z,100.00
2023-10-30T04:46:28.076Z,100.00
2023-10-30T04:51:50.005Z,100.00
2023-10-30T04:57:11.945Z,100.00
2023-10-30T05:02:33.766Z,100.00
2023-10-30T05:07:55.642Z,100.00
2023-10-30T05:13:17.574Z,100.00
2023-10-30T05:18:39.432Z,100.00
2023-10-30T05:24:01.294Z,100.00
2023-10-30T05:29:23.170Z,100.00
2023-10-30T05:34:45.049Z,100.00
2023-10-30T05:40:10.536Z,100.00
2023-10-30T05:45:33.995Z,100.00
2023-10-30T05:50:55.886Z,100.00
2023-10-30T05:56:17.722Z,100.00
2023-10-30T06:01:39.676Z,100.00
2023-10-30T06:07:01.601Z,100.00
2023-10-30T06:12:23.648Z,100.00
2023-10-30T06:17:45.852Z,100.00
2023-10-30T06:23:07.730Z,100.00
2023-10-30T06:28:29.497Z,100.00
2023-10-30T06:33:52.295Z,100.00
2023-10-30T06:39:19.061Z,100.00
2023-10-30T06:44:41.055Z,100.00
2023-10-30T06:50:03.953Z,100.00
2023-10-30T06:55:26.159Z,100.00
2023-10-30T07:00:48.259Z,100.00
2023-10-30T07:06:12.163Z,100.00
2023-10-30T07:11:35.325Z,100.00
2023-10-30T07:17:04.245Z,100.00
2023-10-30T07:22:27.580Z,100.00
2023-10-30T07:27:49.428Z,100.00
2023-10-30T07:33:11.656Z,100.00
2023-10-30T07:38:33.491Z,100.00
2023-10-30T07:43:55.363Z,100.00
2023-10-30T07:49:17.297Z,100.00
2023-10-30T07:54:39.787Z,100.00
2023-10-30T08:00:01.714Z,100.00
2023-10-30T08:05:23.763Z,100.00
2023-10-30T08:10:47.045Z,100.00
2023-10-30T08:16:10.825Z,100.00
2023-10-30T08:21:32.613Z,100.00
2023-10-30T08:26:54.418Z,100.00
2023-10-30T08:32:16.290Z,100.00
2023-10-30T08:37:38.254Z,97.83
2023-10-30T08:43:03.582Z,95.62
2023-10-30T08:48:25.731Z,91.02
2023-10-30T08:53:50.354Z,88.80
2023-10-30T08:59:16.006Z,86.94
2023-10-30T09:04:38.328Z,83.85
2023-10-30T09:10:00.669Z,78.76
2023-10-30T09:15:22.664Z,67.88
2023-10-30T09:20:44.526Z,60.90
2023-10-30T09:26:06.340Z,53.98
2023-10-30T09:31:31.575Z,54.74
2023-10-30T09:36:53.452Z,52.22
2023-10-30T09:42:15.558Z,51.32
2023-10-30T09:47:37.548Z,52.43
2023-10-30T09:53:00.491Z,56.42
2023-10-30T09:58:25.381Z,54.59
2023-10-30T10:03:47.800Z,56.64
2023-10-30T10:09:09.791Z,56.97
2023-10-30T10:14:33.111Z,55.54
2023-10-30T10:19:55.225Z,57.51
2023-10-30T10:25:19.481Z,56.76
2023-10-30T10:30:41.665Z,57.71
2023-10-30T10:36:08.694Z,59.33
2023-10-30T10:41:31.174Z,63.34
2023-10-30T10:47:00.230Z,63.05
2023-10-30T10:52:25.883Z,64.03
2023-10-30T10:58:04.552Z,64.72
2023-10-30T11:03:26.526Z,66.63
2023-10-30T11:08:56.695Z,65.50
2023-10-30T11:14:43.197Z,64.43
2023-10-30T11:20:09.009Z,64.78
2023-10-30T11:25:40.241Z,65.23
2023-10-30T11:31:07.740Z,65.72
2023-10-30T11:36:35.238Z,65.41
2023-10-30T11:41:57.579Z,66.75
2023-10-30T11:47:24.618Z,66.24
2023-10-30T11:52:49.811Z,66.37
2023-10-30T11:58:12.400Z,66.83
2023-10-30T12:03:34.377Z,66.06
2023-10-30T12:08:56.405Z,65.79
2023-10-30T12:14:22.543Z,65.08
2023-10-30T12:19:44.488Z,62.87
2023-10-30T12:25:07.153Z,59.47
2023-10-30T12:30:36.307Z,58.91
2023-10-30T12:35:58.419Z,60.27
2023-10-30T12:41:20.217Z,60.11
2023-10-30T12:46:42.137Z,61.47
2023-10-30T12:52:04.673Z,61.12
2023-10-30T12:57:27.487Z,62.13
2023-10-30T13:02:49.415Z,61.93
2023-10-30T13:08:11.450Z,61.59
2023-10-30T13:43:10.237Z,66.31
2023-10-30T13:48:32.204Z,66.93
2023-10-30T13:53:55.309Z,66.88
2023-10-30T13:59:17.169Z,66.91
2023-10-30T14:04:39.305Z,66.82
2023-10-30T14:10:01.324Z,67.43
2023-10-30T14:15:23.253Z,67.38
2023-10-30T14:20:45.159Z,66.88
2023-10-30T14:26:07.106Z,67.35
2023-10-30T14:31:29.061Z,67.57
2023-10-30T14:36:51.002Z,68.92
2023-10-30T14:42:12.953Z,69.22
2023-10-30T14:47:34.961Z,70.00
2023-10-30T14:52:56.815Z,70.18
2023-10-30T14:58:18.815Z,69.22
2023-10-30T15:03:40.939Z,71.79
2023-10-30T15:09:06.475Z,69.90
2023-10-30T15:14:29.875Z,69.73
2023-10-30T15:19:51.760Z,70.23
2023-10-30T15:25:15.433Z,72.12
2023-10-30T15:30:37.392Z,71.21
2023-10-30T15:35:59.855Z,73.56
2023-10-30T15:41:21.724Z,73.40
2023-10-30T15:46:55.636Z,76.16
2023-10-30T15:57:47.675Z,81.10
2023-10-30T16:14:00.117Z,83.80
2023-10-30T16:19:22.155Z,85.55
2023-10-30T16:24:44.320Z,85.45
2023-10-30T16:30:06.928Z,88.54
2023-10-30T16:35:28.770Z,89.24
2023-10-30T16:40:50.674Z,91.91
2023-10-30T16:46:12.570Z,96.61
2023-10-30T16:51:34.405Z,100.00
2023-10-30T16:56:56.348Z,100.00
2023-10-30T17:02:18.213Z,100.00
2023-10-30T17:07:40.185Z,100.00
2023-10-30T17:13:02.929Z,100.00
2023-10-30T17:18:27.919Z,100.00
2023-10-30T17:23:49.890Z,100.00
2023-10-30T17:29:12.220Z,100.00
2023-10-30T17:34:34.259Z,100.00
2023-10-30T17:39:56.331Z,100.00
2023-10-30T17:45:20.480Z,100.00
2023-10-30T17:50:42.505Z,100.00
2023-10-30T17:56:04.843Z,100.00
2023-10-30T18:01:26.667Z,100.00
2023-10-30T18:06:48.909Z,100.00
2023-10-30T18:12:11.040Z,100.00
2023-10-30T18:17:33.642Z,100.00
2023-10-30T18:22:57.507Z,100.00
2023-10-30T18:28:21.080Z,100.00
2023-10-30T18:33:43.431Z,100.00
2023-10-30T18:39:05.481Z,100.00
2023-10-30T18:44:27.324Z,100.00
2023-10-30T18:49:49.407Z,100.00
2023-10-30T18:55:11.495Z,100.00
2023-10-30T19:00:33.700Z,100.00
2023-10-30T19:05:55.913Z,100.00
2023-10-30T19:11:18.341Z,100.00
2023-10-30T19:16:40.718Z,100.00
2023-10-30T19:22:03.131Z,100.00
2023-10-30T19:27:25.060Z,100.00
2023-10-30T19:32:48.143Z,100.00
2023-10-30T19:38:10.466Z,100.00
2023-10-30T19:43:32.463Z,100.00
2023-10-30T19:48:54.323Z,100.00
2023-10-30T19:54:16.308Z,100.00
2023-10-30T19:59:38.226Z,100.00
2023-10-30T20:05:00.178Z,100.00
2023-10-30T20:10:34.225Z,100.00
2023-10-30T20:16:00.315Z,100.00
2023-10-30T20:21:22.165Z,100.00
2023-10-30T20:26:44.262Z,100.00
2023-10-30T20:32:06.422Z,100.00
2023-10-30T20:37:28.428Z,100.00
2023-10-30T20:42:50.569Z,100.00
2023-10-30T20:48:12.588Z,100.00
2023-10-30T20:53:34.443Z,100.00
2023-10-30T20:58:56.464Z,100.00
2023-10-30T21:04:18.461Z,100.00
2023-10-30T21:09:42.708Z,100.00
2023-10-30T21:15:08.882Z,100.00
2023-10-30T21:20:30.967Z,100.00
2023-10-30T21:25:55.694Z,100.00
2023-10-30T21:31:18.338Z,100.00
2023-10-30T21:36:40.231Z,100.00
2023-10-30T21:42:02.110Z,100.00
2023-10-30T21:47:27.659Z,100.00
2023-10-30T21:52:51.868Z,100.00
2023-10-30T21:58:13.752Z,100.00
2023-10-30T22:03:35.749Z,100.00
2023-10-30T22:08:57.774Z,100.00
2023-10-30T22:14:21.353Z,100.00
2023-10-30T22:19:45.355Z,100.00
2023-10-30T22:25:07.453Z,100.00
2023-10-30T22:30:29.255Z,100.00
2023-10-30T22:35:51.161Z,100.00
2023-10-30T22:41:13.134Z,100.00
2023-10-30T22:46:35.042Z,100.00
2023-10-30T22:51:56.900Z,100.00
2023-10-30T22:57:18.660Z,100.00
2023-10-30T23:02:41.657Z,100.00
2023-10-30T23:08:04.010Z,100.00
2023-10-30T23:13:25.835Z,100.00
2023-10-30T23:18:47.746Z,100.00
2023-10-30T23:24:09.751Z,100.00
2023-10-30T23:29:31.589Z,100.00
2023-10-30T23:34:53.549Z,100.00
2023-10-30T23:40:15.502Z,100.00
2023-10-30T23:45:37.289Z,100.00
2023-10-30T23:50:59.186Z,100.00
2023-10-30T23:56:21.158Z,100.00
